EIKN/NOC METAR and TAF weather

Enter ICAO airport designator
Station Type Date Time Source
EIKN METAR 2022/06/26 08:30 UTC NOAA

EIKN 260830Z 24009KT 210V270 9999 -SHRA BKN003 SCT013 BKN036 11/11 Q0995 BECMG BKN016


Station Type Date Time Source
EIKN Decoded METAR 2022/06/26 08:30 UTC NOAA

Connaught, Ireland (EIKN) 53-54-37N 008-49-05W
Jun 26, 2022 - 04:30 AM EDT / 2022.06.26 0830 UTC
Wind: from the WSW (240 degrees) at 10 MPH (9 KT) (direction variable):0
Visibility: greater than 7 mile(s):0
Sky conditions: mostly cloudy
Weather: light rain showers
Temperature: 51 F (11 C)
Dew Point: 51 F (11 C)
Relative Humidity: 100%
Pressure (altimeter): 29.38 in. Hg (0995 hPa)
ob: EIKN 260830Z 24009KT 210V270 9999 -SHRA BKN003 SCT013 BKN036 11/11 Q0995 BECMG BKN016
cycle: 8

Station Type Date Time Source
EIKN TAF 2022/06/26 06:11 UTC NOAA

TAF EIKN 260500Z 2606/2706 22007KT 8000 FEW010 BKN025
TEMPO 2606/2609 4000 -SHRA BKN007 SCT017CB PROB40
TEMPO 2606/2609 2500 SHRA BR BKN002
BECMG 2608/2610 27013KT
TEMPO 2609/2620 -SHRA SCT010 SCT018CB PROB30
TEMPO 2609/2620 4000 BKN010
TEMPO 2612/2617 27014G25KT
TEMPO 2620/2624 3000 -SHRA BKN008
BECMG 2702/2704 24005KT PROB30
TEMPO 2702/2706 3000 -SHRA BR

Example: see airport list